Currently 69°F in Simi Valley, California, USA
69°F
72°F / 69°F
3 mph NE
0.00"
Thursday, August 11, 2022 1:48 AM PDT

Simi Valley, California Climate Summary
Typical March Day

Normal High:    70.6°F (21.4°C)
Normal Low:    48.3°F (9.0°C)
Average:    58.4°F (14.7°C)

Hour    Temperature    Wind Speed    Humidity
12:00 AM    53°F (12°C)    2 mph    68%
1:00 AM    53°F (11°C)    2 mph    69%
2:00 AM    52°F (11°C)    2 mph    70%
3:00 AM    52°F (11°C)    2 mph    70%
4:00 AM    51°F (11°C)    2 mph    70%
5:00 AM    51°F (10°C)    3 mph    71%
6:00 AM    50°F (10°C)    2 mph    71%
7:00 AM    51°F (10°C)    3 mph    71%
8:00 AM    52°F (11°C)    3 mph    71%
9:00 AM    56°F (13°C)    3 mph    67%
10:00 AM    60°F (16°C)    4 mph    59%
11:00 AM    64°F (18°C)    4 mph    52%
12:00 PM    67°F (19°C)    5 mph    47%
1:00 PM    68°F (20°C)    6 mph    45%
2:00 PM    69°F (20°C)    6 mph    45%
3:00 PM    68°F (20°C)    6 mph    46%
4:00 PM    68°F (20°C)    6 mph    47%
5:00 PM    66°F (19°C)    6 mph    50%
6:00 PM    64°F (18°C)    5 mph    53%
7:00 PM    61°F (16°C)    3 mph    59%
8:00 PM    58°F (15°C)    2 mph    63%
9:00 PM    56°F (14°C)    2 mph    66%
10:00 PM    55°F (13°C)    2 mph    67%
11:00 PM    54°F (12°C)    2 mph    68%
 

The Simi Valley, California weather pages are a service of WeatherCurrents.
Copyright ©2022  WeatherCurrents. All rights reserved. - Submit questions and comments - Privacy Policy